createdAt,value
2023-02-24T00:00:01.864Z,1001.44
2023-02-24T00:00:42.388Z,1001.48
2023-02-24T00:01:22.903Z,1001.46
2023-02-24T00:02:03.459Z,1001.44
2023-02-24T00:02:43.987Z,1001.41
2023-02-24T00:03:24.480Z,1001.42
2023-02-24T00:04:04.978Z,1001.44
2023-02-24T00:04:45.482Z,1001.41
2023-02-24T00:05:25.999Z,1001.38
2023-02-24T00:06:07.376Z,1001.41
2023-02-24T00:06:47.893Z,1001.38
2023-02-24T00:07:28.458Z,1001.39
2023-02-24T00:08:08.955Z,1001.38
2023-02-24T00:08:49.472Z,1001.37
2023-02-24T00:09:30.013Z,1001.39
2023-02-24T00:11:43.040Z,1001.38
2023-02-24T00:12:23.586Z,1001.37
2023-02-24T00:13:05.304Z,1001.38
2023-02-24T00:13:47.323Z,1001.35
2023-02-24T00:16:00.561Z,1001.35
2023-02-24T00:16:41.199Z,1001.36
2023-02-24T00:17:21.656Z,1001.38
2023-02-24T00:18:02.168Z,1001.36
2023-02-24T00:18:42.675Z,1001.35
2023-02-24T00:19:23.205Z,1001.35
2023-02-24T00:20:03.727Z,1001.35
2023-02-24T00:20:44.240Z,1001.33
2023-02-24T00:21:24.769Z,1001.33
2023-02-24T00:23:37.828Z,1001.32
2023-02-24T00:24:18.342Z,1001.32
2023-02-24T00:24:58.872Z,1001.33
2023-02-24T00:25:39.409Z,1001.34
2023-02-24T00:26:20.811Z,1001.32
2023-02-24T00:27:02.286Z,1001.3
2023-02-24T00:27:42.818Z,1001.3
2023-02-24T00:28:23.356Z,1001.31
2023-02-24T00:29:03.898Z,1001.3
2023-02-24T00:29:44.396Z,1001.26
2023-02-24T00:31:43.448Z,1001.23
2023-02-24T00:32:28.666Z,1001.22
2023-02-24T00:33:09.091Z,1001.21
2023-02-24T00:33:51.112Z,1001.25
2023-02-24T00:36:04.688Z,1001.21
2023-02-24T00:36:45.232Z,1001.2
2023-02-24T00:37:25.781Z,1001.19
2023-02-24T00:38:06.306Z,1001.22
2023-02-24T00:38:46.823Z,1001.24
2023-02-24T00:39:27.344Z,1001.21
2023-02-24T00:40:07.890Z,1001.22
2023-02-24T00:40:48.405Z,1001.24
2023-02-24T00:41:29.691Z,1001.24
2023-02-24T00:42:10.225Z,1001.22
2023-02-24T00:42:50.739Z,1001.23
2023-02-24T00:43:31.253Z,1001.23
2023-02-24T00:44:11.821Z,1001.21
2023-02-24T00:44:52.874Z,1001.22
2023-02-24T00:45:33.419Z,1001.26
2023-02-24T00:46:13.985Z,1001.22
2023-02-24T00:46:54.455Z,1001.22
2023-02-24T00:47:34.970Z,1001.21
2023-02-24T00:48:16.273Z,1001.22
2023-02-24T00:48:56.799Z,1001.2
2023-02-24T00:51:11.151Z,1001.17
2023-02-24T00:51:54.453Z,1001.18
2023-02-24T00:52:35.849Z,1001.19
2023-02-24T00:53:18.278Z,1001.16
2023-02-24T00:56:20.836Z,1001.14
2023-02-24T00:57:01.350Z,1001.13
2023-02-24T00:57:41.876Z,1001.15
2023-02-24T00:58:22.388Z,1001.12
2023-02-24T00:59:02.910Z,1001.15
2023-02-24T00:59:43.444Z,1001.09
2023-02-24T01:00:23.941Z,1001.12
2023-02-24T01:01:04.450Z,1001.14
2023-02-24T01:01:45.064Z,1001.11
2023-02-24T01:02:25.492Z,1001.12
2023-02-24T01:03:06.001Z,1001.14
2023-02-24T01:03:46.579Z,1001.14
2023-02-24T01:04:27.044Z,1001.13
2023-02-24T01:05:07.569Z,1001.1
2023-02-24T01:05:48.105Z,1001.12
2023-02-24T01:06:28.655Z,1001.05
2023-02-24T01:08:26.413Z,1001.05
2023-02-24T01:09:06.949Z,1001.06
2023-02-24T01:09:47.486Z,1001.07
2023-02-24T01:10:28.005Z,1001.04
2023-02-24T01:11:08.548Z,1001.07
2023-02-24T01:11:49.142Z,1001.02
2023-02-24T01:12:29.635Z,1001.04
2023-02-24T01:13:10.237Z,1001.05
2023-02-24T01:13:50.805Z,1001.03
2023-02-24T01:14:31.321Z,1001.03
2023-02-24T01:15:11.875Z,1001.05
2023-02-24T01:15:52.438Z,1000.98
2023-02-24T01:16:32.906Z,1001
2023-02-24T01:17:13.440Z,1001.02
2023-02-24T01:17:53.951Z,1000.96
2023-02-24T01:18:35.361Z,1000.99
2023-02-24T01:19:15.934Z,1001
2023-02-24T01:21:14.394Z,1001
2023-02-24T01:21:54.908Z,1000.98
2023-02-24T01:22:35.449Z,1000.97
2023-02-24T01:23:15.973Z,1000.97
2023-02-24T01:23:56.522Z,1000.96
2023-02-24T01:24:37.076Z,1000.99
2023-02-24T01:25:17.611Z,1000.97
2023-02-24T01:25:58.166Z,1000.98
2023-02-24T01:26:38.704Z,1000.97
2023-02-24T01:27:19.543Z,1000.96
2023-02-24T01:27:59.748Z,1001
2023-02-24T01:28:40.273Z,1000.95
2023-02-24T01:29:20.792Z,1000.99
2023-02-24T01:30:01.332Z,1001
2023-02-24T01:30:41.882Z,1000.97
2023-02-24T01:31:22.797Z,1000.98
2023-02-24T01:32:03.148Z,1000.99
2023-02-24T01:32:43.656Z,1001.02
2023-02-24T01:33:24.814Z,1000.98
2023-02-24T01:34:05.328Z,1000.98
2023-02-24T01:34:45.929Z,1001.02
2023-02-24T01:35:26.470Z,1001
2023-02-24T01:36:06.995Z,1001
2023-02-24T01:36:47.534Z,1000.99
2023-02-24T01:37:28.063Z,1000.98
2023-02-24T01:38:08.587Z,1000.98
2023-02-24T01:38:49.148Z,1000.99
2023-02-24T01:39:29.653Z,1000.98
2023-02-24T01:40:10.152Z,1000.94
2023-02-24T01:40:50.679Z,1000.92
2023-02-24T01:41:31.187Z,1000.94
2023-02-24T01:42:11.722Z,1000.92
2023-02-24T01:42:52.249Z,1000.88
2023-02-24T01:43:32.790Z,1000.86
2023-02-24T01:44:13.299Z,1000.84
2023-02-24T01:44:53.840Z,1000.8
2023-02-24T01:45:34.343Z,1000.83
2023-02-24T01:46:14.922Z,1000.84
2023-02-24T01:46:55.425Z,1000.79
2023-02-24T01:47:35.917Z,1000.8
2023-02-24T01:48:16.444Z,1000.81
2023-02-24T01:48:56.943Z,1000.82
2023-02-24T01:49:37.458Z,1000.79
2023-02-24T01:50:17.984Z,1000.8
2023-02-24T01:50:58.492Z,1000.79
2023-02-24T01:51:39.019Z,1000.77
2023-02-24T01:52:19.695Z,1000.77
2023-02-24T01:53:00.225Z,1000.75
2023-02-24T01:53:40.767Z,1000.75
2023-02-24T01:54:21.318Z,1000.74
2023-02-24T01:56:18.974Z,1000.72
2023-02-24T01:56:59.510Z,1000.72
2023-02-24T01:57:40.042Z,1000.68
2023-02-24T01:58:20.557Z,1000.64
2023-02-24T01:59:01.090Z,1000.65
2023-02-24T01:59:41.611Z,1000.64
2023-02-24T02:00:22.132Z,1000.64
2023-02-24T02:01:02.659Z,1000.58
2023-02-24T02:01:43.353Z,1000.58
2023-02-24T02:02:23.845Z,1000.55
2023-02-24T02:03:04.261Z,1000.53
2023-02-24T02:03:44.763Z,1000.54
2023-02-24T02:04:25.288Z,1000.51
2023-02-24T02:05:05.845Z,1000.55
2023-02-24T02:05:46.346Z,1000.51
2023-02-24T02:06:26.860Z,1000.5
2023-02-24T02:07:07.374Z,1000.51
2023-02-24T02:07:47.886Z,1000.54
2023-02-24T02:08:28.420Z,1000.5
2023-02-24T02:09:08.930Z,1000.54
2023-02-24T02:09:49.489Z,1000.53
2023-02-24T02:10:30.025Z,1000.51
2023-02-24T02:11:10.548Z,1000.52
2023-02-24T02:11:51.067Z,1000.52
2023-02-24T02:12:31.578Z,1000.45
2023-02-24T02:13:12.881Z,1000.52
2023-02-24T02:13:53.486Z,1000.48
2023-02-24T02:14:33.916Z,1000.48
2023-02-24T02:15:14.496Z,1000.47
2023-02-24T02:15:54.986Z,1000.49
2023-02-24T02:16:35.533Z,1000.46
2023-02-24T02:17:16.804Z,1000.51
2023-02-24T02:17:57.343Z,1000.48
2023-02-24T02:18:37.850Z,1000.52
2023-02-24T02:19:18.353Z,1000.5
2023-02-24T02:19:58.864Z,1000.49
2023-02-24T02:20:39.412Z,1000.48
2023-02-24T02:21:20.231Z,1000.45
2023-02-24T02:22:00.450Z,1000.48
2023-02-24T02:22:40.964Z,1000.46
2023-02-24T02:23:21.486Z,1000.45
2023-02-24T02:24:02.003Z,1000.44
2023-02-24T02:24:42.527Z,1000.47
2023-02-24T02:26:55.613Z,1000.41
2023-02-24T02:27:37.975Z,1000.4
2023-02-24T02:28:18.525Z,1000.36
2023-02-24T02:28:59.037Z,1000.4
2023-02-24T02:29:41.214Z,1000.37
2023-02-24T02:31:59.672Z,1000.36
2023-02-24T02:32:40.269Z,1000.36
2023-02-24T02:33:20.607Z,1000.36
2023-02-24T02:34:01.126Z,1000.35
2023-02-24T02:34:41.670Z,1000.38
2023-02-24T02:35:22.186Z,1000.36
2023-02-24T02:36:02.700Z,1000.4
2023-02-24T02:36:43.255Z,1000.37
2023-02-24T02:37:23.780Z,1000.38
2023-02-24T02:39:37.741Z,1000.3
2023-02-24T02:40:19.728Z,1000.34
2023-02-24T02:41:00.233Z,1000.34
2023-02-24T02:41:40.782Z,1000.3
2023-02-24T02:44:00.158Z,1000.3
2023-02-24T02:44:41.567Z,1000.3
2023-02-24T02:45:22.113Z,1000.3
2023-02-24T02:46:02.630Z,1000.27
2023-02-24T02:48:23.204Z,1000.29
2023-02-24T02:49:03.726Z,1000.28
2023-02-24T02:49:44.251Z,1000.28
2023-02-24T02:50:24.759Z,1000.27
2023-02-24T02:51:05.274Z,1000.3
2023-02-24T02:53:20.639Z,1000.21
2023-02-24T02:54:01.163Z,1000.23
2023-02-24T02:54:41.705Z,1000.2
2023-02-24T02:55:23.001Z,1000.18
2023-02-24T02:56:03.531Z,1000.19
2023-02-24T02:56:44.068Z,1000.2
2023-02-24T02:57:24.588Z,1000.14
2023-02-24T02:58:05.102Z,1000.15
2023-02-24T02:58:45.620Z,1000.14
2023-02-24T02:59:26.138Z,1000.12
2023-02-24T03:00:07.231Z,1000.12
2023-02-24T03:00:47.758Z,1000.13
2023-02-24T03:01:28.316Z,1000.12
2023-02-24T03:02:08.791Z,1000.09
2023-02-24T03:02:49.332Z,1000.1
2023-02-24T03:03:29.867Z,1000.08
2023-02-24T03:04:10.369Z,1000.12
2023-02-24T03:04:50.965Z,1000.1
2023-02-24T03:05:31.440Z,1000.09
2023-02-24T03:06:12.021Z,1000.11
2023-02-24T03:06:53.118Z,1000.11
2023-02-24T03:07:33.609Z,1000.12
2023-02-24T03:08:14.135Z,1000.11
2023-02-24T03:08:54.638Z,1000.14
2023-02-24T03:09:35.156Z,1000.15
2023-02-24T03:10:15.697Z,1000.14
2023-02-24T03:10:56.236Z,1000.11
2023-02-24T03:11:36.742Z,1000.12
2023-02-24T03:12:17.253Z,1000.11
2023-02-24T03:12:57.802Z,1000.11
2023-02-24T03:13:38.324Z,1000.09
2023-02-24T03:14:18.848Z,1000.1
2023-02-24T03:15:00.133Z,1000.08
2023-02-24T03:15:40.621Z,1000.07
2023-02-24T03:17:55.184Z,1000.06
2023-02-24T03:18:36.458Z,1000.08
2023-02-24T03:19:16.935Z,1000.08
2023-02-24T03:19:57.431Z,1000.05
2023-02-24T03:22:12.034Z,1000.09
2023-02-24T03:22:52.663Z,1000.04
2023-02-24T03:23:38.780Z,1000.06
2023-02-24T03:24:24.011Z,1000.06
2023-02-24T03:25:06.295Z,1000.04
2023-02-24T03:25:51.399Z,1000.06
2023-02-24T03:26:41.286Z,999.99
2023-02-24T03:27:27.260Z,1000.06
2023-02-24T03:28:11.272Z,1000
2023-02-24T03:28:59.465Z,1000
2023-02-24T03:29:45.397Z,1000
2023-02-24T03:30:27.783Z,999.98
2023-02-24T03:31:10.138Z,1000.01
2023-02-24T03:31:52.694Z,1000
2023-02-24T03:32:34.871Z,1000
2023-02-24T03:34:56.780Z,999.98
2023-02-24T03:35:37.266Z,1000.01
2023-02-24T03:36:17.785Z,1000
2023-02-24T03:36:59.130Z,999.99
2023-02-24T03:37:39.660Z,1000.04
2023-02-24T03:38:20.187Z,1000.01
2023-02-24T03:39:00.685Z,1000
2023-02-24T03:39:41.207Z,1000
2023-02-24T03:40:21.738Z,1000.06
2023-02-24T03:41:02.270Z,1000.05
2023-02-24T03:41:42.781Z,1000.05
2023-02-24T03:42:23.299Z,1000.06
2023-02-24T03:43:03.821Z,1000.05
2023-02-24T03:43:44.339Z,1000.05
2023-02-24T03:44:24.864Z,1000.02
2023-02-24T03:45:05.409Z,1000
2023-02-24T03:45:45.978Z,1000
2023-02-24T03:46:26.563Z,1000.02
2023-02-24T03:47:07.001Z,999.99
2023-02-24T03:47:47.560Z,1000.04
2023-02-24T03:48:28.059Z,1000.03
2023-02-24T03:49:08.568Z,1000.07
2023-02-24T03:49:49.841Z,1000.02
2023-02-24T03:50:30.381Z,1000.04
2023-02-24T03:51:10.878Z,1000.03
2023-02-24T03:51:51.461Z,1000.03
2023-02-24T03:52:31.980Z,1000.01
2023-02-24T03:53:12.523Z,1000.02
2023-02-24T03:53:53.041Z,1000.02
2023-02-24T03:54:33.554Z,1000.01
2023-02-24T03:55:14.086Z,1000.02
2023-02-24T03:55:54.625Z,1000.01
2023-02-24T03:56:35.142Z,1000
2023-02-24T03:57:15.695Z,1000.01
2023-02-24T03:57:56.190Z,1000
2023-02-24T03:58:36.764Z,1000
2023-02-24T03:59:17.272Z,1000.04
2023-02-24T03:59:57.790Z,1000.01
2023-02-24T04:00:38.327Z,1000
2023-02-24T04:01:19.331Z,999.98
2023-02-24T04:01:59.421Z,999.97
2023-02-24T04:02:39.932Z,1000.03
2023-02-24T04:03:20.408Z,999.98
2023-02-24T04:04:00.933Z,999.95
2023-02-24T04:04:41.532Z,999.99
2023-02-24T04:05:22.048Z,999.94
2023-02-24T04:07:19.992Z,999.91
2023-02-24T04:08:00.495Z,999.9
2023-02-24T04:08:41.032Z,999.89
2023-02-24T04:09:21.512Z,999.92
2023-02-24T04:10:02.039Z,999.9
2023-02-24T04:10:42.706Z,999.88
2023-02-24T04:11:23.316Z,999.89
2023-02-24T04:12:03.612Z,999.87
2023-02-24T04:12:44.138Z,999.92
2023-02-24T04:13:24.650Z,999.91
2023-02-24T04:14:05.190Z,999.92
2023-02-24T04:14:45.715Z,999.9
2023-02-24T04:15:26.283Z,999.9
2023-02-24T04:16:06.831Z,999.94
2023-02-24T04:16:47.293Z,999.89
2023-02-24T04:17:27.813Z,999.93
2023-02-24T04:18:08.326Z,999.91
2023-02-24T04:18:48.846Z,999.92
2023-02-24T04:19:29.397Z,999.92
2023-02-24T04:20:09.957Z,999.92
2023-02-24T04:20:50.529Z,999.92
2023-02-24T04:21:31.061Z,999.91
2023-02-24T04:24:48.058Z,999.91
2023-02-24T04:25:28.564Z,999.9
2023-02-24T04:26:09.088Z,999.87
2023-02-24T04:26:51.392Z,999.88
2023-02-24T04:29:05.620Z,999.83
2023-02-24T04:29:46.158Z,999.82
2023-02-24T04:30:26.709Z,999.81
2023-02-24T04:31:07.348Z,999.81
2023-02-24T04:31:48.757Z,999.79
2023-02-24T04:34:02.916Z,999.71
2023-02-24T04:34:44.188Z,999.71
2023-02-24T04:35:24.705Z,999.7
2023-02-24T04:36:05.274Z,999.71
2023-02-24T04:36:45.787Z,999.71
2023-02-24T04:37:27.285Z,999.69
2023-02-24T04:38:07.829Z,999.67
2023-02-24T04:38:48.376Z,999.66
2023-02-24T04:39:28.931Z,999.69
2023-02-24T04:40:09.498Z,999.67
2023-02-24T04:40:50.080Z,999.64
2023-02-24T04:41:30.563Z,999.65
2023-02-24T04:42:11.137Z,999.66
2023-02-24T04:42:51.667Z,999.62
2023-02-24T04:43:32.226Z,999.63
2023-02-24T04:44:12.736Z,999.58
2023-02-24T04:44:54.104Z,999.59
2023-02-24T04:45:34.627Z,999.56
2023-02-24T04:46:15.211Z,999.51
2023-02-24T04:46:55.687Z,999.53
2023-02-24T04:47:36.252Z,999.52
2023-02-24T04:48:16.789Z,999.49
2023-02-24T04:48:57.306Z,999.5
2023-02-24T04:49:37.815Z,999.47
2023-02-24T04:50:18.356Z,999.45
2023-02-24T04:50:58.905Z,999.46
2023-02-24T04:51:39.455Z,999.47
2023-02-24T04:52:20.013Z,999.47
2023-02-24T04:53:00.564Z,999.45
2023-02-24T04:53:41.093Z,999.48
2023-02-24T04:54:21.664Z,999.48
2023-02-24T04:55:02.197Z,999.41
2023-02-24T04:55:42.762Z,999.42
2023-02-24T04:56:23.242Z,999.44
2023-02-24T04:57:03.769Z,999.45
2023-02-24T04:57:44.317Z,999.44
2023-02-24T04:58:24.870Z,999.43
2023-02-24T04:59:05.407Z,999.43
2023-02-24T04:59:45.992Z,999.45
2023-02-24T05:00:26.555Z,999.44
2023-02-24T05:02:39.548Z,999.38
2023-02-24T05:03:20.123Z,999.39
2023-02-24T05:04:00.684Z,999.36
2023-02-24T05:04:41.415Z,999.36
2023-02-24T05:05:21.702Z,999.37
2023-02-24T05:06:02.228Z,999.29
2023-02-24T05:06:42.732Z,999.32
2023-02-24T05:07:23.286Z,999.28
2023-02-24T05:08:03.821Z,999.26
2023-02-24T05:08:44.359Z,999.27
2023-02-24T05:09:24.868Z,999.26
2023-02-24T05:10:05.392Z,999.25
2023-02-24T05:10:45.957Z,999.28
2023-02-24T05:11:27.313Z,999.24
2023-02-24T05:12:07.844Z,999.25
2023-02-24T05:12:48.380Z,999.21
2023-02-24T05:13:28.908Z,999.25
2023-02-24T05:14:09.423Z,999.26
2023-02-24T05:14:49.942Z,999.25
2023-02-24T05:15:30.446Z,999.21
2023-02-24T05:16:11.025Z,999.2
2023-02-24T05:16:51.507Z,999.22
2023-02-24T05:17:32.030Z,999.17
2023-02-24T05:18:12.553Z,999.17
2023-02-24T05:18:53.093Z,999.14
2023-02-24T05:19:33.613Z,999.16
2023-02-24T05:20:14.166Z,999.15
2023-02-24T05:20:54.720Z,999.07
2023-02-24T05:21:35.264Z,999.11
2023-02-24T05:22:15.810Z,999.09
2023-02-24T05:22:56.339Z,999.06
2023-02-24T05:23:36.842Z,999.08
2023-02-24T05:24:17.368Z,999.07
2023-02-24T05:24:57.918Z,999.12
2023-02-24T05:25:38.671Z,999.08
2023-02-24T05:26:19.242Z,999.1
2023-02-24T05:26:59.756Z,999.06
2023-02-24T05:27:40.291Z,999.08
2023-02-24T05:28:20.810Z,999.1
2023-02-24T05:29:01.331Z,999.13
2023-02-24T05:32:55.341Z,999.04
2023-02-24T05:33:35.862Z,999.05
2023-02-24T05:34:18.080Z,999.04
2023-02-24T05:34:58.635Z,999.02
2023-02-24T05:37:00.586Z,998.97
2023-02-24T05:37:41.114Z,998.98
2023-02-24T05:38:21.670Z,998.95
2023-02-24T05:39:02.225Z,998.95
2023-02-24T05:39:42.764Z,998.94
2023-02-24T05:43:36.971Z,998.87
2023-02-24T05:44:17.500Z,998.92
2023-02-24T05:44:58.060Z,998.86
2023-02-24T05:45:38.606Z,998.85
2023-02-24T05:46:19.163Z,998.83
2023-02-24T05:50:12.863Z,998.74
2023-02-24T05:50:53.421Z,998.73
2023-02-24T05:51:33.939Z,998.71
2023-02-24T05:52:14.491Z,998.72
2023-02-24T05:52:55.038Z,998.73
2023-02-24T05:53:35.584Z,998.72
2023-02-24T05:54:16.134Z,998.7
2023-02-24T05:54:56.686Z,998.71
2023-02-24T05:55:37.855Z,998.68
2023-02-24T05:56:18.504Z,998.71
2023-02-24T05:56:59.062Z,998.7
2023-02-24T05:57:39.605Z,998.67
2023-02-24T05:58:20.128Z,998.69
2023-02-24T05:59:00.669Z,998.73
2023-02-24T05:59:41.186Z,998.7
2023-02-24T06:00:21.711Z,998.74
2023-02-24T06:01:02.256Z,998.67
2023-02-24T06:01:42.832Z,998.71
2023-02-24T06:02:23.357Z,998.68
2023-02-24T06:03:03.845Z,998.67
2023-02-24T06:05:20.694Z,998.65
2023-02-24T06:06:01.809Z,998.62
2023-02-24T06:06:43.145Z,998.6
2023-02-24T06:07:24.514Z,998.6
2023-02-24T06:08:05.006Z,998.58
2023-02-24T06:08:45.517Z,998.58
2023-02-24T06:09:26.790Z,998.57
2023-02-24T06:10:07.853Z,998.58
2023-02-24T06:13:42.280Z,998.59
2023-02-24T06:14:22.856Z,998.58
2023-02-24T06:15:03.386Z,998.58
2023-02-24T06:15:43.921Z,998.59
2023-02-24T06:16:24.513Z,998.59
2023-02-24T06:17:05.021Z,998.55
2023-02-24T06:17:45.537Z,998.6
2023-02-24T06:18:26.063Z,998.58
2023-02-24T06:20:41.399Z,998.53
2023-02-24T06:21:22.201Z,998.53
2023-02-24T06:22:05.007Z,998.5
2023-02-24T06:22:49.917Z,998.53
2023-02-24T06:23:33.284Z,998.53
2023-02-24T06:24:20.434Z,998.52
2023-02-24T06:25:03.614Z,998.55
2023-02-24T06:25:50.661Z,998.53
2023-02-24T06:26:32.595Z,998.53
2023-02-24T06:27:15.512Z,998.51
2023-02-24T06:28:01.387Z,998.52
2023-02-24T06:28:44.538Z,998.5
2023-02-24T06:29:27.542Z,998.5
2023-02-24T06:30:10.761Z,998.46
2023-02-24T06:30:51.971Z,998.46
2023-02-24T06:31:36.981Z,998.48
2023-02-24T06:32:17.576Z,998.47
2023-02-24T06:33:03.410Z,998.45
2023-02-24T06:33:43.920Z,998.46
2023-02-24T06:34:27.144Z,998.48
2023-02-24T06:35:10.165Z,998.48
2023-02-24T06:35:51.299Z,998.44
2023-02-24T06:36:31.842Z,998.44
2023-02-24T06:37:16.070Z,998.43
2023-02-24T06:38:02.908Z,998.44
2023-02-24T06:38:56.899Z,998.41
2023-02-24T06:39:37.353Z,998.42
2023-02-24T06:40:20.760Z,998.37
2023-02-24T06:41:01.318Z,998.41
2023-02-24T06:41:42.318Z,998.4
2023-02-24T06:42:23.437Z,998.4
2023-02-24T06:43:05.422Z,998.36
2023-02-24T06:43:45.923Z,998.41
2023-02-24T06:46:14.773Z,998.4
2023-02-24T06:46:55.212Z,998.4
2023-02-24T06:47:35.737Z,998.38
2023-02-24T06:48:16.246Z,998.39
2023-02-24T06:48:56.762Z,998.42
2023-02-24T06:49:37.325Z,998.47
2023-02-24T06:50:17.865Z,998.41
2023-02-24T06:50:58.382Z,998.47
2023-02-24T06:51:38.899Z,998.48
2023-02-24T06:52:19.532Z,998.52
2023-02-24T06:52:59.968Z,998.5
2023-02-24T06:53:40.519Z,998.5
2023-02-24T06:54:21.068Z,998.52
2023-02-24T06:55:01.625Z,998.53
2023-02-24T06:55:42.137Z,998.49
2023-02-24T06:56:22.657Z,998.5
2023-02-24T06:57:03.185Z,998.54
2023-02-24T06:57:43.737Z,998.53
2023-02-24T06:58:24.339Z,998.52
2023-02-24T06:59:04.825Z,998.54
2023-02-24T06:59:45.346Z,998.56
2023-02-24T07:00:25.901Z,998.57
2023-02-24T07:01:06.488Z,998.55
2023-02-24T07:01:46.948Z,998.59
2023-02-24T07:02:27.507Z,998.57
2023-02-24T07:03:08.041Z,998.56
2023-02-24T07:03:48.584Z,998.56
2023-02-24T07:04:29.252Z,998.6
2023-02-24T07:05:09.605Z,998.6
2023-02-24T07:05:50.202Z,998.56
2023-02-24T07:06:30.686Z,998.57
2023-02-24T07:07:11.242Z,998.59
2023-02-24T07:07:51.786Z,998.56
2023-02-24T07:08:32.330Z,998.57
2023-02-24T07:09:12.889Z,998.58
2023-02-24T07:09:53.403Z,998.55
2023-02-24T07:10:33.914Z,998.56
2023-02-24T07:11:14.435Z,998.5
2023-02-24T07:11:55.013Z,998.49
2023-02-24T07:12:35.545Z,998.47
2023-02-24T07:14:48.774Z,998.44
2023-02-24T07:15:29.312Z,998.45
2023-02-24T07:16:09.858Z,998.47
2023-02-24T07:16:50.458Z,998.49
2023-02-24T07:17:30.889Z,998.49
2023-02-24T07:18:11.417Z,998.49
2023-02-24T07:18:51.969Z,998.48
2023-02-24T07:19:32.584Z,998.47
2023-02-24T07:20:13.001Z,998.5
2023-02-24T07:20:53.523Z,998.54
2023-02-24T07:21:34.067Z,998.47
2023-02-24T07:22:14.624Z,998.49
2023-02-24T07:22:55.169Z,998.53
2023-02-24T07:23:35.717Z,998.5
2023-02-24T07:24:16.248Z,998.49
2023-02-24T07:24:56.751Z,998.45
2023-02-24T07:25:37.272Z,998.48
2023-02-24T07:26:17.814Z,998.43
2023-02-24T07:26:58.333Z,998.41
2023-02-24T07:27:38.850Z,998.42
2023-02-24T07:28:19.406Z,998.42
2023-02-24T07:28:59.916Z,998.44
2023-02-24T07:29:40.439Z,998.44
2023-02-24T07:30:20.947Z,998.42
2023-02-24T07:31:01.538Z,998.45
2023-02-24T07:31:42.110Z,998.43
2023-02-24T07:32:22.813Z,998.45
2023-02-24T07:33:03.017Z,998.41
2023-02-24T07:33:43.537Z,998.4
2023-02-24T07:34:24.054Z,998.4
2023-02-24T07:35:04.573Z,998.41
2023-02-24T07:35:45.157Z,998.4
2023-02-24T07:36:25.677Z,998.38
2023-02-24T07:37:06.220Z,998.37
2023-02-24T07:37:46.771Z,998.37
2023-02-24T07:38:27.790Z,998.39
2023-02-24T07:39:08.327Z,998.35
2023-02-24T07:39:48.840Z,998.37
2023-02-24T07:40:29.433Z,998.38
2023-02-24T07:41:09.900Z,998.37
2023-02-24T07:41:50.419Z,998.35
2023-02-24T07:42:31.688Z,998.35
2023-02-24T07:43:12.863Z,998.32
2023-02-24T07:43:53.404Z,998.35
2023-02-24T07:44:33.922Z,998.35
2023-02-24T07:45:14.542Z,998.35
2023-02-24T07:45:55.046Z,998.38
2023-02-24T07:46:35.666Z,998.38
2023-02-24T07:48:33.351Z,998.38
2023-02-24T07:49:13.848Z,998.38
2023-02-24T07:49:54.357Z,998.36
2023-02-24T07:50:34.876Z,998.39
2023-02-24T07:51:15.400Z,998.39
2023-02-24T07:51:55.909Z,998.38
2023-02-24T07:52:36.434Z,998.35
2023-02-24T07:54:49.518Z,998.37
2023-02-24T07:55:30.045Z,998.33
2023-02-24T07:56:10.572Z,998.34
2023-02-24T07:56:51.090Z,998.36
2023-02-24T07:57:31.617Z,998.39
2023-02-24T07:58:12.134Z,998.36
2023-02-24T07:58:52.655Z,998.36
2023-02-24T07:59:33.191Z,998.34
2023-02-24T08:00:14.625Z,998.33
2023-02-24T08:00:54.919Z,998.35
2023-02-24T08:03:23.224Z,998.29
2023-02-24T08:04:03.816Z,998.3
2023-02-24T08:04:44.331Z,998.28
2023-02-24T08:05:24.927Z,998.22
2023-02-24T08:07:41.482Z,998.29
2023-02-24T08:08:22.523Z,998.26
2023-02-24T08:09:03.061Z,998.27
2023-02-24T08:09:43.582Z,998.29
2023-02-24T08:10:24.319Z,998.25
2023-02-24T08:11:05.574Z,998.25
2023-02-24T08:11:46.098Z,998.24
2023-02-24T08:12:26.647Z,998.22
2023-02-24T08:13:07.193Z,998.25
2023-02-24T08:13:47.704Z,998.22
2023-02-24T08:14:28.223Z,998.22
2023-02-24T08:15:09.603Z,998.21
2023-02-24T08:15:50.133Z,998.22
2023-02-24T08:16:30.656Z,998.24
2023-02-24T08:18:28.624Z,998.21
2023-02-24T08:19:09.181Z,998.19
2023-02-24T08:19:49.656Z,998.18
2023-02-24T08:20:33.626Z,998.17
2023-02-24T08:21:14.148Z,998.18
2023-02-24T08:21:54.667Z,998.19
2023-02-24T08:22:35.209Z,998.15
2023-02-24T08:23:15.743Z,998.15
2023-02-24T08:23:56.418Z,998.17
2023-02-24T08:24:36.964Z,998.14
2023-02-24T08:25:17.527Z,998.15
2023-02-24T08:25:58.090Z,998.12
2023-02-24T08:26:38.656Z,998.15
2023-02-24T08:27:19.167Z,998.18
2023-02-24T08:28:07.732Z,998.12
2023-02-24T08:28:40.184Z,998.13
2023-02-24T08:30:53.699Z,998.11
2023-02-24T08:31:34.305Z,998.11
2023-02-24T08:32:14.846Z,998.09
2023-02-24T08:32:55.902Z,998.12
2023-02-24T08:35:24.581Z,998.16
2023-02-24T08:36:05.109Z,998.12
2023-02-24T08:36:45.650Z,998.16
2023-02-24T08:37:26.202Z,998.13
2023-02-24T08:38:06.719Z,998.15
2023-02-24T08:38:47.236Z,998.12
2023-02-24T08:39:27.759Z,998.13
2023-02-24T08:40:08.288Z,998.13
2023-02-24T08:40:48.817Z,998.11
2023-02-24T08:41:29.349Z,998.1
2023-02-24T08:42:09.851Z,998.09
2023-02-24T08:42:51.192Z,998.1
2023-02-24T08:43:31.709Z,998.11
2023-02-24T08:44:12.239Z,998.12
2023-02-24T08:44:52.770Z,998.1
2023-02-24T08:45:33.298Z,998.1
2023-02-24T08:46:14.066Z,998.09
2023-02-24T08:46:54.386Z,998.12
2023-02-24T08:47:34.859Z,998.09
2023-02-24T08:48:15.392Z,998.06
2023-02-24T08:48:55.941Z,998.09
2023-02-24T08:49:36.434Z,998.1
2023-02-24T08:50:16.990Z,998.08
2023-02-24T08:50:57.558Z,998.04
2023-02-24T08:51:38.064Z,998.09
2023-02-24T08:52:18.599Z,998.09
2023-02-24T08:52:59.109Z,998.1
2023-02-24T08:53:39.767Z,998.09
2023-02-24T08:54:20.292Z,998.07
2023-02-24T08:55:00.840Z,998.04
2023-02-24T08:55:41.378Z,998.07
2023-02-24T08:56:22.296Z,998.03
2023-02-24T08:57:02.418Z,998.05
2023-02-24T08:57:42.939Z,998.05
2023-02-24T08:58:23.484Z,998.02
2023-02-24T08:59:04.038Z,998.01
2023-02-24T09:01:17.886Z,998
2023-02-24T09:02:04.434Z,998.02
2023-02-24T09:02:39.525Z,997.99
2023-02-24T09:03:20.057Z,997.99
2023-02-24T09:04:00.591Z,998
2023-02-24T09:04:41.112Z,997.99
2023-02-24T09:05:21.626Z,997.95
2023-02-24T09:06:02.180Z,997.98
2023-02-24T09:06:42.678Z,997.96
2023-02-24T09:07:23.215Z,997.95
2023-02-24T09:08:03.729Z,997.96
2023-02-24T09:08:44.240Z,997.92
2023-02-24T09:09:25.103Z,997.96
2023-02-24T09:10:06.504Z,997.97
2023-02-24T09:10:47.025Z,997.98
2023-02-24T09:11:27.559Z,997.97
2023-02-24T09:12:08.076Z,997.94
2023-02-24T09:12:48.582Z,997.93
2023-02-24T09:13:29.125Z,997.92
2023-02-24T09:14:18.043Z,997.94
2023-02-24T09:14:50.159Z,997.93
2023-02-24T09:15:30.690Z,997.9
2023-02-24T09:17:49.014Z,997.95
2023-02-24T09:18:30.282Z,997.93
2023-02-24T09:19:11.659Z,997.93
2023-02-24T09:19:54.644Z,997.9
2023-02-24T09:20:37.507Z,997.93
2023-02-24T09:21:21.035Z,997.91
2023-02-24T09:22:04.217Z,997.91
2023-02-24T09:22:44.018Z,997.9
2023-02-24T09:23:28.171Z,997.91
2023-02-24T09:24:09.641Z,997.93
2023-02-24T09:24:53.152Z,997.91
2023-02-24T09:25:35.149Z,997.89
2023-02-24T09:27:49.754Z,997.85
2023-02-24T09:28:30.295Z,997.88
2023-02-24T09:29:10.808Z,997.86
2023-02-24T09:29:51.353Z,997.87
2023-02-24T09:30:31.907Z,997.85
2023-02-24T09:31:12.608Z,997.86
2023-02-24T09:31:52.982Z,997.82
2023-02-24T09:32:33.604Z,997.81
2023-02-24T09:33:14.034Z,997.82
2023-02-24T09:33:54.464Z,997.81
2023-02-24T09:34:35.037Z,997.78
2023-02-24T09:35:15.564Z,997.79
2023-02-24T09:35:56.112Z,997.76
2023-02-24T09:36:36.652Z,997.75
2023-02-24T09:37:17.143Z,997.77
2023-02-24T09:37:57.667Z,997.76
2023-02-24T09:38:38.208Z,997.75
2023-02-24T09:39:18.753Z,997.72
2023-02-24T09:39:59.282Z,997.76